Time;durP1;ratioP1;P1;durP2;ratioP2;P2;SDS_P1;SDS_P2;PMS_P1;PMS_P2;Temp;Humidity;BMP_temperature;BMP_pressure;BME280_temperature;BME280_humidity;BME280_pressure;Samples;Min_cycle;Max_cycle;Signal;HPM_P1;HPM_P2
2022/12/04 00:01:09;;;;;;;73.23;29.80;;;1.60;99.90;;;;;;5056199;28;20286;-70
2022/12/04 00:03:36;;;;;;;73.50;30.40;;;1.70;99.90;;;;;;5060864;28;20683;-69
2022/12/04 00:06:07;;;;;;;74.97;30.93;;;1.70;99.90;;;;;;5038280;28;20297;-69
2022/12/04 00:08:33;;;;;;;75.97;29.77;;;1.70;99.90;;;;;;5060397;28;20212;-68
2022/12/04 00:11:02;;;;;;;72.97;29.50;;;1.70;99.90;;;;;;5062072;28;20537;-69
2022/12/04 00:13:29;;;;;;;80.13;31.77;;;1.70;99.90;;;;;;5046110;28;20292;-69
2022/12/04 00:15:56;;;;;;;81.07;30.43;;;1.70;99.90;;;;;;5057230;28;20214;-70
2022/12/04 00:18:22;;;;;;;81.13;32.07;;;1.70;99.90;;;;;;5074975;28;20214;-69
2022/12/04 00:20:49;;;;;;;77.37;30.57;;;1.70;99.90;;;;;;5058422;28;20230;-69
2022/12/04 00:23:16;;;;;;;79.17;31.47;;;1.70;99.90;;;;;;5064526;28;20728;-69
2022/12/04 00:25:47;;;;;;;78.43;30.17;;;1.70;99.90;;;;;;5059563;28;20298;-69
2022/12/04 00:28:17;;;;;;;70.00;30.10;;;1.70;99.90;;;;;;5054772;28;20567;-69
2022/12/04 00:30:45;;;;;;;74.83;32.17;;;1.70;99.90;;;;;;5060731;28;20357;-68
2022/12/04 00:33:12;;;;;;;71.23;30.33;;;1.70;99.90;;;;;;5054531;28;20337;-68
2022/12/04 00:35:39;;;;;;;78.23;32.30;;;1.70;99.90;;;;;;5056849;28;20292;-69
2022/12/04 00:38:06;;;;;;;79.50;30.80;;;1.70;99.90;;;;;;5048875;28;20249;-68
2022/12/04 00:40:36;;;;;;;82.03;30.57;;;1.80;99.90;;;;;;5041668;28;20793;-68
2022/12/04 00:43:02;;;;;;;73.07;30.73;;;1.80;99.90;;;;;;5056625;28;20230;-69
2022/12/04 00:45:29;;;;;;;85.10;31.63;;;1.80;99.90;;;;;;5060947;28;20205;-69
2022/12/04 00:47:56;;;;;;;80.27;30.13;;;1.80;99.90;;;;;;5054592;28;20659;-69
2022/12/04 00:50:23;;;;;;;81.23;32.70;;;1.80;99.90;;;;;;5064983;28;20495;-68
2022/12/04 00:52:52;;;;;;;76.67;30.13;;;1.80;99.90;;;;;;5048530;28;20297;-68
2022/12/04 00:55:19;;;;;;;81.03;31.37;;;1.80;99.90;;;;;;5062897;28;20248;-69
2022/12/04 00:57:46;;;;;;;79.37;32.20;;;1.70;99.90;;;;;;5055252;28;20587;-69
2022/12/04 01:00:13;;;;;;;76.53;30.50;;;1.70;99.90;;;;;;5056540;28;20755;-69
2022/12/04 01:02:40;;;;;;;81.27;31.97;;;1.70;99.90;;;;;;5063425;28;20202;-68
2022/12/04 01:05:07;;;;;;;76.87;32.73;;;1.80;99.90;;;;;;5059582;28;20221;-69
2022/12/04 01:07:34;;;;;;;75.93;32.33;;;1.70;99.90;;;;;;5064825;28;20191;-69
2022/12/04 01:10:01;;;;;;;82.13;33.40;;;1.70;99.90;;;;;;5043899;28;20675;-69
2022/12/04 01:12:28;;;;;;;85.80;33.13;;;1.70;99.90;;;;;;5067013;28;20309;-70
2022/12/04 01:14:55;;;;;;;88.73;33.70;;;1.70;99.90;;;;;;5061373;28;20301;-69
2022/12/04 01:17:22;;;;;;;80.30;31.50;;;1.80;99.90;;;;;;5063971;28;20195;-68
2022/12/04 01:19:49;;;;;;;89.67;32.53;;;1.80;99.90;;;;;;5064255;28;20310;-67
2022/12/04 01:22:15;;;;;;;83.03;34.00;;;1.80;99.90;;;;;;5060222;28;20293;-70
2022/12/04 01:24:42;;;;;;;88.30;34.17;;;1.80;99.90;;;;;;5044706;28;20226;-68
2022/12/04 01:27:09;;;;;;;95.60;36.37;;;1.80;99.90;;;;;;5055830;28;20322;-69
2022/12/04 01:29:37;;;;;;;89.23;35.77;;;1.80;99.90;;;;;;5064484;28;20199;-69
2022/12/04 01:32:04;;;;;;;109.67;41.60;;;1.80;99.90;;;;;;5061571;28;20209;-68
2022/12/04 01:34:31;;;;;;;114.50;41.00;;;1.80;99.90;;;;;;5061105;28;20220;-68
2022/12/04 01:36:58;;;;;;;91.53;34.03;;;1.80;99.90;;;;;;5051413;28;20243;-68
2022/12/04 01:39:24;;;;;;;97.63;36.27;;;1.80;99.90;;;;;;5062481;28;20263;-68
2022/12/04 01:41:51;;;;;;;89.17;36.67;;;1.80;99.90;;;;;;5052618;28;20222;-68
2022/12/04 01:44:24;;;;;;;122.57;42.30;;;1.80;99.90;;;;;;5057963;28;20631;-68
2022/12/04 01:46:56;;;;;;;90.53;36.20;;;1.80;99.90;;;;;;5053520;28;20298;-68
2022/12/04 01:49:24;;;;;;;144.83;50.50;;;1.80;99.90;;;;;;5056649;28;20288;-69
2022/12/04 01:51:56;;;;;;;130.10;47.20;;;1.80;99.90;;;;;;5060330;28;20608;-69
2022/12/04 01:54:27;;;;;;;146.53;54.83;;;1.80;99.90;;;;;;5077189;28;20314;-68
2022/12/04 01:56:59;;;;;;;88.07;35.60;;;1.80;99.90;;;;;;5058245;28;20225;-70
2022/12/04 01:59:30;;;;;;;99.17;36.47;;;1.80;99.90;;;;;;5058666;28;20221;-69
2022/12/04 02:02:10;;;;;;;107.47;37.37;;;1.70;99.90;;;;;;5059164;28;20289;-68
2022/12/04 02:04:38;;;;;;;98.50;36.37;;;1.80;99.90;;;;;;5062221;28;20221;-68
2022/12/04 02:07:05;;;;;;;97.07;35.13;;;1.80;99.90;;;;;;5062875;28;20293;-69
2022/12/04 02:09:34;;;;;;;102.17;37.70;;;1.80;99.90;;;;;;5059998;28;20678;-70
2022/12/04 02:12:12;;;;;;;90.37;34.37;;;1.90;99.90;;;;;;5054613;28;20546;-68
2022/12/04 02:14:39;;;;;;;77.73;31.10;;;1.80;99.90;;;;;;5063073;28;20209;-69
2022/12/04 02:17:40;;;;;;;84.80;34.40;;;1.70;99.90;;;;;;5063761;28;20202;-69
2022/12/04 02:20:15;;;;;;;78.80;31.87;;;1.70;99.90;;;;;;5055715;28;20324;-69
2022/12/04 02:23:06;;;;;;;79.03;31.00;;;1.70;99.90;;;;;;5062921;28;20628;-68
2022/12/04 02:25:52;;;;;;;85.70;31.93;;;1.70;99.90;;;;;;5057682;28;20198;-68
2022/12/04 02:28:41;;;;;;;82.93;32.10;;;1.70;99.90;;;;;;5055309;28;20251;-69
2022/12/04 02:31:15;;;;;;;83.90;32.50;;;1.60;99.90;;;;;;5055107;28;20289;-69
2022/12/04 02:33:55;;;;;;;91.27;34.80;;;1.70;99.90;;;;;;5063065;28;20652;-68
2022/12/04 02:36:26;;;;;;;94.50;33.93;;;1.70;99.90;;;;;;5059141;28;20260;-68
2022/12/04 02:39:28;;;;;;;105.67;35.87;;;1.70;99.90;;;;;;5041970;28;20237;-68
2022/12/04 02:42:13;;;;;;;94.77;34.40;;;1.70;99.90;;;;;;5043393;28;20700;-68
2022/12/04 02:45:12;;;;;;;88.53;33.20;;;1.70;99.90;;;;;;5058672;28;20697;-69
2022/12/04 02:47:42;;;;;;;84.20;32.93;;;1.70;99.90;;;;;;5060858;28;20252;-69
2022/12/04 02:50:12;;;;;;;76.00;31.60;;;1.70;99.90;;;;;;5042145;28;20371;-69
2022/12/04 02:52:44;;;;;;;89.43;34.87;;;1.70;99.90;;;;;;5056153;28;20311;-69
2022/12/04 02:55:29;;;;;;;87.67;34.83;;;1.70;99.90;;;;;;5059242;28;20289;-69
2022/12/04 02:58:01;;;;;;;75.90;31.70;;;1.70;99.90;;;;;;5058369;28;20943;-69
2022/12/04 03:00:33;;;;;;;83.30;33.27;;;1.70;99.90;;;;;;5059227;28;20328;-69
2022/12/04 03:03:05;;;;;;;92.47;35.30;;;1.70;99.90;;;;;;5060763;28;21027;-68
2022/12/04 03:05:44;;;;;;;91.50;35.30;;;1.60;99.90;;;;;;5059707;28;20221;-68
2022/12/04 03:08:15;;;;;;;87.87;32.97;;;1.70;99.90;;;;;;5058976;28;20828;-68
2022/12/04 03:10:51;;;;;;;86.93;35.47;;;1.60;99.90;;;;;;5059809;28;20212;-70
2022/12/04 03:13:29;;;;;;;100.57;35.90;;;1.60;99.90;;;;;;5059365;28;20850;-71
2022/12/04 03:16:09;;;;;;;132.83;42.53;;;1.50;99.90;;;;;;5053696;28;20654;-69
2022/12/04 03:18:40;;;;;;;92.23;36.47;;;1.60;99.90;;;;;;5053411;28;20217;-70
2022/12/04 03:21:16;;;;;;;89.00;34.40;;;1.50;99.90;;;;;;5056989;28;20652;-69
2022/12/04 03:23:51;;;;;;;84.53;35.27;;;1.50;99.90;;;;;;5062087;28;20205;-70
2022/12/04 03:26:35;;;;;;;95.10;35.30;;;1.50;99.90;;;;;;5060212;28;20559;-68
2022/12/04 03:29:22;;;;;;;92.20;35.13;;;1.50;99.90;;;;;;5059276;28;20228;-68
2022/12/04 03:32:15;;;;;;;86.60;33.13;;;1.60;99.90;;;;;;5060590;28;20584;-68
2022/12/04 03:34:42;;;;;;;93.77;35.93;;;1.60;99.90;;;;;;5057025;28;20297;-68
2022/12/04 03:37:19;;;;;;;91.90;34.73;;;1.60;99.90;;;;;;5058584;28;20256;-68
2022/12/04 03:40:01;;;;;;;86.53;34.70;;;1.60;99.90;;;;;;5056667;28;20213;-68
2022/12/04 03:42:56;;;;;;;88.30;34.63;;;1.50;99.90;;;;;;5044706;28;20341;-69
2022/12/04 03:45:34;;;;;;;89.60;33.67;;;1.50;99.90;;;;;;5056111;28;20368;-67
2022/12/04 03:48:19;;;;;;;89.07;34.83;;;1.40;99.90;;;;;;5059387;28;20246;-69
2022/12/04 03:51:01;;;;;;;93.70;33.63;;;1.40;99.90;;;;;;5058496;28;20594;-68
2022/12/04 03:53:43;;;;;;;99.50;36.30;;;1.40;99.90;;;;;;5059148;28;20273;-68
2022/12/04 03:56:26;;;;;;;85.83;32.80;;;1.40;99.90;;;;;;5060089;28;20574;-68
2022/12/04 03:59:05;;;;;;;88.80;34.53;;;1.40;99.90;;;;;;5060369;28;20212;-69
2022/12/04 04:01:37;;;;;;;82.13;32.93;;;1.40;99.90;;;;;;5055613;28;20325;-68
2022/12/04 04:04:08;;;;;;;87.37;34.27;;;1.40;99.90;;;;;;5047995;28;20198;-68
2022/12/04 04:06:42;;;;;;;89.07;35.20;;;1.40;99.90;;;;;;5052222;28;20225;-68
2022/12/04 04:09:13;;;;;;;94.67;34.10;;;1.40;99.90;;;;;;5056343;28;20276;-69
2022/12/04 04:12:09;;;;;;;90.70;33.07;;;1.30;99.90;;;;;;5041279;28;20939;-68
2022/12/04 04:26:30;;;;;;;90.63;32.17;;;1.40;99.90;;;;;;5063045;28;20294;-69
2022/12/04 04:28:56;;;;;;;89.50;34.67;;;1.50;99.90;;;;;;5062707;28;20468;-69
2022/12/04 04:31:38;;;;;;;81.20;32.67;;;1.50;99.90;;;;;;5050215;28;20299;-68
2022/12/04 04:34:23;;;;;;;83.93;31.60;;;1.50;99.90;;;;;;5061611;28;20197;-68
2022/12/04 04:37:15;;;;;;;82.60;32.47;;;1.50;99.90;;;;;;5060332;28;20218;-69
2022/12/04 04:40:11;;;;;;;94.40;33.23;;;1.50;99.90;;;;;;5063902;28;20290;-68
2022/12/04 04:42:49;;;;;;;89.00;32.93;;;1.50;99.90;;;;;;5059249;28;20212;-69
2022/12/04 04:45:22;;;;;;;81.83;32.83;;;1.50;99.90;;;;;;5046263;28;20288;-69
2022/12/04 04:48:15;;;;;;;81.57;32.37;;;1.50;99.90;;;;;;5061359;28;20297;-68
2022/12/04 04:50:43;;;;;;;86.13;32.37;;;1.50;99.90;;;;;;5063277;28;20677;-69
2022/12/04 04:53:17;;;;;;;83.40;33.40;;;1.50;99.90;;;;;;5065376;28;20317;-69
2022/12/04 04:55:45;;;;;;;83.80;31.47;;;1.50;99.90;;;;;;5061260;28;20208;-68
2022/12/04 04:58:17;;;;;;;86.30;33.13;;;1.50;99.90;;;;;;5058719;28;20217;-69
2022/12/04 05:01:07;;;;;;;87.00;33.07;;;1.50;99.90;;;;;;5059839;28;20236;-69
2022/12/04 05:03:34;;;;;;;77.87;29.83;;;1.50;99.90;;;;;;5057804;28;20261;-69
2022/12/04 05:06:01;;;;;;;84.83;33.00;;;1.50;99.90;;;;;;5061201;28;20278;-69
2022/12/04 05:08:28;;;;;;;86.97;33.93;;;1.50;99.90;;;;;;5044439;28;20467;-68
2022/12/04 05:10:55;;;;;;;78.23;32.17;;;1.50;99.90;;;;;;5062572;28;20561;-68
2022/12/04 05:13:21;;;;;;;86.40;31.30;;;1.60;99.90;;;;;;5056595;28;20358;-69
2022/12/04 05:15:58;;;;;;;87.27;34.10;;;1.50;99.90;;;;;;5062624;28;20685;-68
2022/12/04 05:18:25;;;;;;;84.27;31.40;;;1.60;99.90;;;;;;5037153;28;20595;-68
2022/12/04 05:20:52;;;;;;;86.97;31.73;;;1.50;99.90;;;;;;5061759;28;20237;-68
2022/12/04 05:23:19;;;;;;;87.23;32.33;;;1.50;99.90;;;;;;5049851;28;20357;-68
2022/12/04 05:25:45;;;;;;;83.80;32.63;;;1.60;99.90;;;;;;5064150;28;20220;-68
2022/12/04 05:28:12;;;;;;;88.40;33.87;;;1.50;99.90;;;;;;5073939;28;20218;-68
2022/12/04 05:30:39;;;;;;;81.90;32.07;;;1.50;99.90;;;;;;5059668;28;20328;-68
2022/12/04 05:33:06;;;;;;;80.43;31.60;;;1.50;99.90;;;;;;5062111;28;20249;-68
2022/12/04 05:35:33;;;;;;;84.00;32.23;;;1.50;99.90;;;;;;5064978;28;20211;-68
2022/12/04 05:38:00;;;;;;;81.73;32.43;;;1.50;99.90;;;;;;5059696;28;20237;-68
2022/12/04 05:40:26;;;;;;;81.33;32.27;;;1.50;99.90;;;;;;5057173;28;20221;-69
2022/12/04 05:42:53;;;;;;;81.23;31.93;;;1.40;99.90;;;;;;5054779;28;20225;-68
2022/12/04 05:45:20;;;;;;;83.00;32.30;;;1.40;99.90;;;;;;5056752;28;20227;-68
2022/12/04 05:47:46;;;;;;;83.07;32.30;;;1.40;99.90;;;;;;5059532;28;20316;-69
2022/12/04 05:50:13;;;;;;;80.83;31.10;;;1.40;99.90;;;;;;5057797;28;20279;-69
2022/12/04 05:52:40;;;;;;;91.43;34.43;;;1.40;99.90;;;;;;5065354;28;20718;-69
2022/12/04 05:55:07;;;;;;;84.20;33.23;;;1.40;99.90;;;;;;5064337;28;20680;-69
2022/12/04 05:57:34;;;;;;;80.57;31.50;;;1.50;99.90;;;;;;5055474;28;20227;-68
2022/12/04 06:00:00;;;;;;;86.67;32.30;;;1.40;99.90;;;;;;5066240;28;20237;-69
2022/12/04 06:02:27;;;;;;;86.07;32.80;;;1.40;99.90;;;;;;5062866;28;20723;-68
2022/12/04 06:04:54;;;;;;;91.27;34.20;;;1.40;99.90;;;;;;5064643;28;20203;-68
2022/12/04 06:07:21;;;;;;;77.93;31.90;;;1.40;99.90;;;;;;5060793;28;20237;-69
2022/12/04 06:09:47;;;;;;;83.77;31.07;;;1.40;99.90;;;;;;5061160;28;20288;-69
2022/12/04 06:12:17;;;;;;;84.10;33.80;;;1.40;99.90;;;;;;5046575;28;20704;-68
2022/12/04 06:14:44;;;;;;;80.83;31.47;;;1.50;99.90;;;;;;5065520;28;20197;-69
2022/12/04 06:17:10;;;;;;;84.77;32.90;;;1.50;99.90;;;;;;5058365;28;20213;-70
2022/12/04 06:19:38;;;;;;;91.37;33.63;;;1.50;99.90;;;;;;5065286;28;20620;-69
2022/12/04 06:22:05;;;;;;;80.93;32.53;;;1.50;99.90;;;;;;5046135;28;20228;-67
2022/12/04 06:24:32;;;;;;;90.53;31.93;;;1.50;99.90;;;;;;5062200;28;20198;-67
2022/12/04 06:26:59;;;;;;;85.27;31.83;;;1.60;99.90;;;;;;5056319;28;20223;-67
2022/12/04 06:29:46;;;;;;;89.80;33.40;;;1.60;99.90;;;;;;5048355;28;20206;-67
2022/12/04 06:32:13;;;;;;;79.93;31.97;;;1.60;99.90;;;;;;5085038;28;20209;-68
2022/12/04 06:34:50;;;;;;;88.13;34.33;;;1.60;99.90;;;;;;5064418;28;20305;-69
2022/12/04 06:37:17;;;;;;;84.27;33.33;;;1.70;99.90;;;;;;5057687;28;20677;-69
2022/12/04 06:39:44;;;;;;;87.57;34.60;;;1.60;99.90;;;;;;5058741;28;20199;-70
2022/12/04 06:42:11;;;;;;;86.13;32.70;;;1.60;99.90;;;;;;5057709;28;20772;-68
2022/12/04 06:44:38;;;;;;;79.30;31.13;;;1.60;99.90;;;;;;5060160;28;20205;-68
2022/12/04 06:47:05;;;;;;;85.57;34.70;;;1.60;99.90;;;;;;5059179;28;20202;-68
2022/12/04 06:49:31;;;;;;;92.43;32.17;;;1.60;99.90;;;;;;5063525;28;20754;-69
2022/12/04 06:52:01;;;;;;;83.80;33.17;;;1.60;99.90;;;;;;5062541;28;20588;-69
2022/12/04 06:54:31;;;;;;;77.53;31.57;;;1.50;99.90;;;;;;5071389;28;20280;-70
2022/12/04 06:56:57;;;;;;;81.80;31.83;;;1.60;99.90;;;;;;5056863;28;20451;-69
2022/12/04 06:59:24;;;;;;;79.73;33.80;;;1.60;99.90;;;;;;5037365;28;20282;-69
2022/12/04 07:01:51;;;;;;;80.33;31.97;;;1.60;99.90;;;;;;5054917;28;20367;-69
2022/12/04 07:04:18;;;;;;;79.77;32.03;;;1.60;99.90;;;;;;5039593;28;20203;-69
2022/12/04 07:06:45;;;;;;;84.30;32.03;;;1.60;99.90;;;;;;5062619;28;20233;-68
2022/12/04 07:09:17;;;;;;;85.53;33.73;;;1.60;99.90;;;;;;5061152;28;20580;-68
2022/12/04 07:11:44;;;;;;;89.67;33.33;;;1.50;99.90;;;;;;5063611;28;20298;-69
2022/12/04 07:14:12;;;;;;;82.80;33.87;;;1.50;99.90;;;;;;5061499;28;20290;-68
2022/12/04 07:16:40;;;;;;;84.20;32.77;;;1.50;99.90;;;;;;5057443;28;20599;-67
2022/12/04 07:19:13;;;;;;;82.13;32.83;;;1.50;99.90;;;;;;5055756;28;20206;-69
2022/12/04 07:21:41;;;;;;;93.30;34.17;;;1.40;99.90;;;;;;5051496;28;20259;-68
2022/12/04 07:24:14;;;;;;;82.67;31.67;;;1.50;99.90;;;;;;5072987;28;20251;-68
2022/12/04 07:26:41;;;;;;;87.57;32.43;;;1.50;99.90;;;;;;5054965;28;20316;-69
2022/12/04 07:29:09;;;;;;;86.07;32.97;;;1.50;99.90;;;;;;5044634;28;20232;-68
2022/12/04 07:31:37;;;;;;;86.70;31.13;;;1.50;99.90;;;;;;5055499;28;20206;-70
2022/12/04 07:34:04;;;;;;;83.87;33.43;;;1.60;99.90;;;;;;5058090;28;20212;-70
2022/12/04 07:36:31;;;;;;;89.37;33.30;;;1.60;99.90;;;;;;5062306;28;20309;-68
2022/12/04 07:38:57;;;;;;;92.23;35.53;;;1.60;99.90;;;;;;5058804;28;20657;-68
2022/12/04 07:41:24;;;;;;;85.67;32.03;;;1.60;99.90;;;;;;5058390;28;20219;-70
2022/12/04 07:43:53;;;;;;;88.90;32.43;;;1.60;99.90;;;;;;5064654;28;20237;-69
2022/12/04 07:46:22;;;;;;;88.80;31.93;;;1.70;99.90;;;;;;5059275;28;20296;-69
2022/12/04 07:48:49;;;;;;;94.10;33.80;;;1.70;99.90;;;;;;5059027;28;20210;-69
2022/12/04 07:51:19;;;;;;;82.37;33.07;;;1.60;99.90;;;;;;5050171;28;20210;-69
2022/12/04 07:53:47;;;;;;;87.60;32.57;;;1.60;99.90;;;;;;5067691;28;20683;-70
2022/12/04 07:56:15;;;;;;;89.63;33.53;;;1.60;99.90;;;;;;5060303;28;20324;-69
2022/12/04 07:58:46;;;;;;;84.33;32.77;;;1.60;99.90;;;;;;5060395;28;20245;-68
2022/12/04 08:01:16;;;;;;;91.73;35.23;;;1.60;99.90;;;;;;5060439;28;20233;-68
2022/12/04 08:03:44;;;;;;;84.67;31.90;;;1.60;99.90;;;;;;5063374;28;20205;-69
2022/12/04 08:06:19;;;;;;;84.87;32.13;;;1.60;99.90;;;;;;5065781;28;20279;-69
2022/12/04 08:08:47;;;;;;;92.10;33.63;;;1.60;99.90;;;;;;5061686;28;20755;-68
2022/12/04 08:11:17;;;;;;;86.10;32.90;;;1.60;99.90;;;;;;5069102;28;20247;-69
2022/12/04 08:13:44;;;;;;;88.73;33.00;;;1.60;99.90;;;;;;5065250;28;20221;-69
2022/12/04 08:16:13;;;;;;;88.17;33.33;;;1.50;99.90;;;;;;5058998;28;20195;-69
2022/12/04 08:18:45;;;;;;;95.83;34.50;;;1.60;99.90;;;;;;5063627;28;20718;-69
2022/12/04 08:21:15;;;;;;;88.13;33.37;;;1.60;99.90;;;;;;5064688;28;20329;-69
2022/12/04 08:23:43;;;;;;;90.17;32.77;;;1.60;99.90;;;;;;5047780;28;20729;-68
2022/12/04 08:26:10;;;;;;;85.70;31.43;;;1.60;99.90;;;;;;5046143;28;20697;-70
2022/12/04 08:28:38;;;;;;;89.30;34.17;;;1.70;99.90;;;;;;5062930;28;20202;-70
2022/12/04 08:31:07;;;;;;;86.57;31.60;;;1.60;99.90;;;;;;5041397;28;20282;-69
2022/12/04 08:33:34;;;;;;;81.50;29.97;;;1.60;99.90;;;;;;5064634;28;20209;-69
2022/12/04 08:36:05;;;;;;;71.63;30.20;;;1.70;99.90;;;;;;5057857;28;20198;-69
2022/12/04 08:38:35;;;;;;;77.07;28.37;;;1.70;99.90;;;;;;5061032;28;20234;-68
2022/12/04 08:41:04;;;;;;;82.73;31.13;;;1.70;99.90;;;;;;5063768;28;20202;-69
2022/12/04 08:43:33;;;;;;;82.63;29.57;;;1.70;99.90;;;;;;5060783;28;20309;-69
2022/12/04 08:46:03;;;;;;;80.57;28.70;;;1.70;99.90;;;;;;5058948;28;20207;-68
2022/12/04 08:48:30;;;;;;;74.23;28.93;;;1.60;99.90;;;;;;5063222;28;20287;-68
2022/12/04 08:50:58;;;;;;;76.40;28.67;;;1.60;99.90;;;;;;5058274;28;20499;-69
2022/12/04 08:53:25;;;;;;;71.33;27.23;;;1.60;99.90;;;;;;5064297;28;20308;-69
2022/12/04 08:55:52;;;;;;;77.40;28.17;;;1.60;99.90;;;;;;5066039;28;20313;-69
2022/12/04 08:58:19;;;;;;;66.03;27.33;;;1.60;99.90;;;;;;5050144;28;20708;-69
2022/12/04 09:00:46;;;;;;;71.23;28.53;;;1.50;99.90;;;;;;5064523;28;20986;-70
2022/12/04 09:03:15;;;;;;;72.03;26.73;;;1.60;99.90;;;;;;5062765;28;20714;-68
2022/12/04 09:05:44;;;;;;;64.27;27.40;;;1.60;99.90;;;;;;5057952;28;20302;-69
2022/12/04 09:08:13;;;;;;;61.57;26.03;;;1.60;99.90;;;;;;5063476;28;20193;-68
2022/12/04 09:10:41;;;;;;;67.27;27.53;;;1.60;99.90;;;;;;5057202;28;20206;-69
2022/12/04 09:13:08;;;;;;;63.43;25.97;;;1.60;99.90;;;;;;5058385;28;20227;-69
2022/12/04 09:15:39;;;;;;;58.57;25.37;;;1.70;99.90;;;;;;5063022;28;20356;-68
2022/12/04 09:18:06;;;;;;;58.77;25.93;;;1.70;99.90;;;;;;5050508;28;20283;-68
2022/12/04 09:20:33;;;;;;;58.43;24.10;;;1.70;99.90;;;;;;5040384;28;20245;-69
2022/12/04 09:23:00;;;;;;;57.57;23.60;;;1.70;99.90;;;;;;5058946;28;20230;-69
2022/12/04 09:25:34;;;;;;;56.53;23.20;;;1.70;99.90;;;;;;5061573;28;20222;-70
2022/12/04 09:28:00;;;;;;;50.03;21.87;;;1.70;99.90;;;;;;5063177;28;20302;-69
2022/12/04 09:30:27;;;;;;;51.87;21.23;;;1.50;99.90;;;;;;5062701;28;20220;-68
2022/12/04 09:32:54;;;;;;;42.10;19.03;;;1.60;99.90;;;;;;5060075;28;20218;-69
2022/12/04 09:35:21;;;;;;;47.97;20.23;;;1.60;99.90;;;;;;5064741;28;20210;-69
2022/12/04 09:37:47;;;;;;;56.30;23.10;;;1.60;99.90;;;;;;5059983;28;20242;-69
2022/12/04 09:40:42;;;;;;;52.07;22.27;;;1.50;99.90;;;;;;5060778;28;20309;-70
2022/12/04 09:43:38;;;;;;;51.17;23.63;;;1.60;99.90;;;;;;5051011;28;20233;-68
2022/12/04 09:46:15;;;;;;;47.37;20.80;;;1.50;99.90;;;;;;5063286;28;20228;-69
2022/12/04 09:48:45;;;;;;;40.53;17.63;;;1.50;99.90;;;;;;5064596;28;20211;-69
2022/12/04 09:51:17;;;;;;;44.93;18.83;;;1.60;99.90;;;;;;5060362;28;20203;-69
2022/12/04 09:53:50;;;;;;;44.87;19.80;;;1.60;99.90;;;;;;5062241;28;20207;-69
2022/12/04 09:56:18;;;;;;;42.63;20.40;;;1.70;99.90;;;;;;5062353;28;20249;-69
2022/12/04 09:58:54;;;;;;;40.37;19.47;;;1.70;99.90;;;;;;5059393;28;20209;-69
2022/12/04 10:01:26;;;;;;;43.63;20.97;;;1.70;99.90;;;;;;5064773;28;20228;-69
2022/12/04 10:03:54;;;;;;;40.53;18.33;;;1.60;99.90;;;;;;5056358;28;20688;-67
2022/12/04 10:06:39;;;;;;;46.90;18.87;;;1.60;99.90;;;;;;5057136;28;20690;-68
2022/12/04 10:09:21;;;;;;;40.53;19.07;;;1.60;99.90;;;;;;5059732;28;20731;-68
2022/12/04 10:12:00;;;;;;;39.30;18.70;;;1.60;99.90;;;;;;5060120;28;20297;-69
2022/12/04 10:14:53;;;;;;;35.90;16.63;;;1.60;99.90;;;;;;5044721;28;20292;-68
2022/12/04 10:17:46;;;;;;;38.97;17.47;;;1.70;99.90;;;;;;5060596;28;20582;-69
2022/12/04 10:20:47;;;;;;;38.33;17.57;;;1.70;99.90;;;;;;5066878;28;20221;-69
2022/12/04 10:23:43;;;;;;;41.00;17.30;;;1.70;99.90;;;;;;5065867;28;20224;-69
2022/12/04 10:26:15;;;;;;;33.43;16.23;;;1.70;99.90;;;;;;5052779;28;20295;-69
2022/12/04 10:28:55;;;;;;;35.77;15.70;;;1.70;99.90;;;;;;5064302;28;20230;-68
2022/12/04 10:31:24;;;;;;;27.73;14.93;;;1.70;99.90;;;;;;5059393;28;20666;-71
2022/12/04 10:34:15;;;;;;;30.60;15.13;;;1.70;99.90;;;;;;5058079;28;20245;-68
2022/12/04 10:36:47;;;;;;;36.03;16.43;;;1.70;99.90;;;;;;5067124;28;20213;-68
2022/12/04 10:39:23;;;;;;;29.03;14.27;;;1.70;99.90;;;;;;5076366;28;20630;-72
2022/12/04 10:41:53;;;;;;;33.73;15.20;;;1.70;99.90;;;;;;5059944;28;20240;-69
2022/12/04 10:44:20;;;;;;;34.50;15.77;;;1.70;99.90;;;;;;5056832;28;20748;-69
2022/12/04 10:46:47;;;;;;;33.57;15.80;;;1.70;99.90;;;;;;5060307;28;20207;-68
2022/12/04 10:49:23;;;;;;;27.97;15.23;;;1.70;99.90;;;;;;5053937;28;20216;-68
2022/12/04 10:51:50;;;;;;;32.87;15.53;;;1.70;99.90;;;;;;5061135;28;20292;-69
2022/12/04 10:54:47;;;;;;;33.73;15.53;;;1.80;99.90;;;;;;5043310;28;20287;-68
2022/12/04 10:57:15;;;;;;;31.37;15.33;;;1.80;99.90;;;;;;5034832;28;20275;-68
2022/12/04 10:59:53;;;;;;;34.57;16.27;;;1.70;99.90;;;;;;5045395;28;20198;-68
2022/12/04 11:02:34;;;;;;;30.40;14.90;;;1.80;99.90;;;;;;5054624;28;20233;-68
2022/12/04 11:05:26;;;;;;;31.87;15.33;;;1.80;99.90;;;;;;5047711;28;20272;-69
2022/12/04 11:07:54;;;;;;;32.50;14.83;;;1.80;99.90;;;;;;5059022;28;20201;-68
2022/12/04 11:10:28;;;;;;;33.20;14.37;;;1.90;99.90;;;;;;5061203;28;20214;-68
2022/12/04 11:12:58;;;;;;;29.43;14.93;;;2.00;99.90;;;;;;5059191;28;20228;-69
2022/12/04 11:15:25;;;;;;;30.83;14.17;;;1.90;99.90;;;;;;5062380;28;20202;-68
2022/12/04 11:17:52;;;;;;;29.80;13.87;;;1.90;99.90;;;;;;5059543;28;20622;-69
2022/12/04 11:20:26;;;;;;;33.10;15.57;;;1.90;99.90;;;;;;5063016;28;20300;-69
2022/12/04 11:22:56;;;;;;;30.53;14.20;;;1.90;99.90;;;;;;5049361;28;20222;-70
2022/12/04 11:25:36;;;;;;;29.63;15.10;;;1.90;99.90;;;;;;5058858;28;20290;-68
2022/12/04 11:28:06;;;;;;;30.33;14.20;;;1.90;99.90;;;;;;5054253;28;20319;-68
2022/12/04 11:30:35;;;;;;;29.77;15.33;;;1.90;99.90;;;;;;5054321;28;20634;-67
2022/12/04 11:33:06;;;;;;;27.07;14.57;;;1.90;99.90;;;;;;5058807;28;20210;-67
2022/12/04 11:35:33;;;;;;;31.57;15.30;;;1.90;99.90;;;;;;5060734;28;20226;-69
2022/12/04 11:38:13;;;;;;;27.93;14.63;;;1.90;99.90;;;;;;5054805;28;20246;-69
2022/12/04 11:40:49;;;;;;;33.03;15.80;;;2.00;99.90;;;;;;5059881;28;20211;-69
2022/12/04 11:43:17;;;;;;;29.07;15.33;;;2.00;99.90;;;;;;5054804;28;20322;-67
2022/12/04 11:46:00;;;;;;;29.33;14.93;;;2.00;99.90;;;;;;5062824;28;20229;-69
2022/12/04 11:48:31;;;;;;;28.63;14.83;;;2.00;99.90;;;;;;5052839;28;20342;-69
2022/12/04 11:51:28;;;;;;;28.93;14.10;;;2.10;99.90;;;;;;5060695;28;20252;-70
2022/12/04 11:54:16;;;;;;;28.77;16.03;;;2.10;99.90;;;;;;5054366;28;20207;-69
2022/12/04 11:56:55;;;;;;;33.73;16.40;;;2.10;99.90;;;;;;5051385;28;20618;-70
2022/12/04 11:59:30;;;;;;;30.60;14.50;;;2.10;99.90;;;;;;5054217;28;20286;-70
2022/12/04 12:02:18;;;;;;;32.37;15.87;;;2.10;99.90;;;;;;5056407;28;20209;-69
2022/12/04 12:05:14;;;;;;;31.97;15.83;;;2.10;99.90;;;;;;5058648;28;20568;-70
2022/12/04 12:08:06;;;;;;;33.00;15.67;;;2.10;99.90;;;;;;5047535;28;20207;-71
2022/12/04 12:10:44;;;;;;;34.90;16.10;;;2.10;99.90;;;;;;5040772;28;20213;-69
2022/12/04 12:13:53;;;;;;;31.07;15.07;;;2.10;99.90;;;;;;5059649;28;20252;-69
2022/12/04 12:16:43;;;;;;;36.13;16.87;;;2.00;99.90;;;;;;5056460;28;20226;-68
2022/12/04 12:19:52;;;;;;;32.13;15.70;;;2.00;99.90;;;;;;5064601;28;20203;-69
2022/12/04 12:23:01;;;;;;;33.77;16.03;;;2.10;99.90;;;;;;5060531;28;20232;-67
2022/12/04 12:26:03;;;;;;;37.03;16.50;;;2.00;99.90;;;;;;5042292;28;20286;-68
2022/12/04 12:29:15;;;;;;;33.97;17.57;;;2.10;99.90;;;;;;5060132;28;20222;-69
2022/12/04 12:32:03;;;;;;;31.73;16.60;;;2.10;99.90;;;;;;5049256;28;20374;-69
2022/12/04 12:34:50;;;;;;;37.47;18.60;;;2.20;99.90;;;;;;5059664;28;20716;-68
2022/12/04 12:37:29;;;;;;;34.43;16.33;;;2.10;99.90;;;;;;5053472;28;20279;-70
2022/12/04 12:40:05;;;;;;;33.07;17.07;;;2.10;99.90;;;;;;5061814;28;20301;-68
2022/12/04 12:42:37;;;;;;;34.93;16.83;;;2.10;99.90;;;;;;5055652;28;20263;-70
2022/12/04 12:45:37;;;;;;;35.73;17.67;;;2.20;99.90;;;;;;5061974;28;20211;-69
2022/12/04 12:48:19;;;;;;;40.20;17.87;;;2.20;99.90;;;;;;5062267;28;20224;-69
2022/12/04 12:50:56;;;;;;;37.40;17.50;;;2.20;99.90;;;;;;5062805;28;20201;-69
2022/12/04 12:53:50;;;;;;;37.13;17.97;;;2.20;99.90;;;;;;5060760;28;20206;-69
2022/12/04 12:56:37;;;;;;;42.87;20.63;;;2.20;99.90;;;;;;5061682;28;20519;-69
2022/12/04 12:59:13;;;;;;;45.63;22.53;;;2.10;99.90;;;;;;5044334;28;20207;-68
2022/12/04 13:01:53;;;;;;;45.77;20.23;;;2.10;99.90;;;;;;5063202;28;20325;-68
2022/12/04 13:04:45;;;;;;;43.80;20.60;;;2.10;99.90;;;;;;5062344;28;20552;-68
2022/12/04 13:07:25;;;;;;;43.83;21.13;;;2.10;99.90;;;;;;5050272;28;20246;-68
2022/12/04 13:10:19;;;;;;;44.40;21.67;;;2.10;99.90;;;;;;5061893;28;20600;-69
2022/12/04 13:13:09;;;;;;;48.33;21.40;;;2.20;99.90;;;;;;5059085;28;20301;-71
2022/12/04 13:15:50;;;;;;;50.33;22.63;;;2.20;99.90;;;;;;5056007;28;20210;-68
2022/12/04 13:18:31;;;;;;;60.43;23.67;;;2.10;99.90;;;;;;5062326;28;20207;-68
2022/12/04 13:21:02;;;;;;;50.17;23.20;;;2.00;99.90;;;;;;5059801;28;20279;-69